• Join FlightAware (Why Join?)
  • Login
  • US Flag 
08:47PM EST


 

Airport Tracker/Info


-or-


 

Live Flight TrackerFlight Track Log ✈ UAL4476 ✈ 05-Apr-2013 ✈ KCLE - KDAY

Flight Track Log - Related Links

Times and Time Zones

All times are in EDT time to prevent confusion due to time zone crossing. See the UAL4476 flight status page for this flight to view local times or setup timezone preferences in your user account.

Time Position Orientation Groundspeed Altitude Reporting Facility
EDT Latitude Longitude Course Direction KTS MPH feet Rate Location/Type
12:31PM 41.4153 -81.8375 25° Northeast 168 193 1,900  Level Cleveland Center
12:32PM 41.4508 -81.8158 25° Northeast 206 237 3,400 2,100 Climbing Cleveland Center
12:33PM 41.4986 -81.8528 330° Northwest 219 252 5,800 1,440 Climbing Cleveland Center
12:34PM 41.5100 -81.9392 280° West 207 238 6,300 1,440 Climbing Cleveland Center
12:35PM 41.4986 -82.0275 260° West 224 258 8,700 2,220 Climbing Cleveland Center
12:36PM 41.4536 -82.1069 233° Southwest 245 282 10,800 1,620 Climbing Cleveland Center
12:37PM 41.4025 -82.1997 234° Southwest 296 341 12,000 1,500 Climbing Cleveland Center
12:38PM 41.3489 -82.2981 234° Southwest 322 371 13,800 1,620 Climbing Cleveland Center
12:39PM 41.3017 -82.3825 233° Southwest 327 376 15,300 1,140 Climbing Cleveland Center
12:40PM 41.2458 -82.4803 233° Southwest 334 384 16,100 360 Climbing Cleveland Center
12:41PM 41.1964 -82.5756 235° Southwest 334 384 16,100  Level Cleveland Center
12:42PM 41.1425 -82.6678 232° Southwest 334 384 16,100  Level Cleveland Center
12:43PM 41.0886 -82.7597 232° Southwest 329 379 16,100  Level Cleveland Center
12:44PM 41.0328 -82.8514 231° Southwest 329 379 16,100  Level Cleveland Center
12:47PM 40.8894 -83.0872 231° Southwest 329 379 16,100  Level Indianapolis Center
12:48PM 40.8303 -83.1806 230° Southwest 329 379 16,100 -60 Level Indianapolis Center
12:49PM 40.7733 -83.2736 231° Southwest 331 381 16,000 -60 Descending Indianapolis Center
12:50PM 40.7144 -83.3681 231° Southwest 332 382 16,000  Level Indianapolis Center
12:51PM 40.6456 -83.4794 231° Southwest 335 386 16,000 -240 Level Indianapolis Center
12:52PM 40.6006 -83.5475 229° Southwest 337 388 15,600 -780 Descending Indianapolis Center
12:52PM 40.5850 -83.5753 234° Southwest 339 390 15,200 -1,500 Descending Indianapolis Center
12:52PM 40.5461 -83.6339 229° Southwest 333 383 14,200 -1,500 Descending Indianapolis Center
12:53PM 40.5278 -83.6664 233° Southwest 325 374 13,700 -1,740 Descending Indianapolis Center
12:53PM 40.4889 -83.7283 230° Southwest 306 352 12,500 -1,680 Descending Indianapolis Center
12:54PM 40.4719 -83.7531 228° Southwest 310 357 12,000 -1,380 Descending Indianapolis Center
12:54PM 40.4347 -83.8119 230° Southwest 302 348 11,100 -1,080 Descending Indianapolis Center
12:55PM 40.4194 -83.8369 231° Southwest 299 344 10,900 -240 Descending Indianapolis Center
12:55PM 40.3825 -83.8928 229° Southwest 294 338 10,900 -300 Level Indianapolis Center
12:56PM 40.3628 -83.9153 221° Southwest 297 342 10,600 -840 Descending Indianapolis Center
12:57PM 40.3161 -83.9664 220° Southwest 316 364 10,100 -720 Descending Indianapolis Center
12:57PM 40.2964 -83.9881 220° Southwest 309 356 9,900 -120 Descending Indianapolis Center
12:58PM 40.2519 -84.0375 220° Southwest 310 357 10,000  Climbing Indianapolis Center
12:58PM 40.2203 -84.0736 221° Southwest 308 354 9,900  Descending Indianapolis Center
12:59PM 40.1811 -84.1156 219° Southwest 305 351 10,000  Climbing Indianapolis Center
12:59PM 40.1556 -84.1436 220° Southwest 302 348 9,900  Descending Indianapolis Center
01:00PM 40.1144 -84.1914 222° Southwest 294 338 10,000  Climbing Indianapolis Center
01:00PM 40.0931 -84.2150 220° Southwest 300 345 9,900  Descending Indianapolis Center
01:01PM 40.0525 -84.2594 220° Southwest 293 337 10,000 -540 Climbing Indianapolis Center
01:01PM 40.0306 -84.2825 219° Southwest 296 341 9,400 -1,920 Descending Indianapolis Center
01:02PM 39.9906 -84.3275 221° Southwest 269 310 8,100 -1,980 Descending Indianapolis Center
01:02PM 39.9764 -84.3486 229° Southwest 278 320 7,400 -2,280 Descending Indianapolis Center
01:03PM 39.9486 -84.4061 238° Southwest 267 307 5,800 -2,160 Descending Indianapolis Center
01:03PM 39.9342 -84.4294 231° Southwest 270 311 5,200 -1,920 Descending Indianapolis Center
01:04PM 39.8933 -84.4394 191° South 262 302 4,100 -2,040 Descending Indianapolis Center
01:04PM 39.8697 -84.4008 129° Southeast 261 300 3,100 -1,020 Descending Indianapolis Center
01:05PM 39.8525 -84.3742 130° Southeast 232 267 3,100 -240 Level Indianapolis Center
01:05PM 39.8378 -84.3336 115° Southeast 235 270 2,900 -420 Descending Indianapolis Center
01:06PM 39.8456 -84.3053 70° East 191 220 2,700 -720 Descending Indianapolis Center
01:06PM 39.8600 -84.2817 51° Northeast 207 238 2,200 -1,140 Descending Indianapolis Center
01:07PM 39.8747 -84.2547 55° Northeast 143 165 1,600 -1,500 Descending Indianapolis Center